This is the latest recevied weather packets stored in our database for station/object K9ZOG. If no packets are shown the sender has not sent any weather packets the latest 10 day(s).
| Time | Temp. | Humidity | Pressure | Rain* | Wind** | Luminosity | Snow |
|---|---|---|---|---|---|---|---|
| 1777571054 | 9.44° C | 56% | 1016.6 hPa | 0 mm | - | 387 W/m² | - |
| 1777570753 | 9.44° C | 59% | 1016.6 hPa | 0 mm | - | 439 W/m² | - |
| 1777570453 | 9.44° C | 52% | 1016.7 hPa | 0 mm | - | 696 W/m² | - |
| 1777570153 | 9.44° C | 51% | 1016.6 hPa | 0 mm | - | 923 W/m² | - |
| 1777569855 | 9.44° C | 55% | 1016.6 hPa | 0 mm | - | 502 W/m² | - |
| 1777569555 | 9.44° C | 56% | 1016.6 hPa | 0 mm | - | 106 W/m² | - |
| 1777569253 | 9.44° C | 57% | 1016.6 hPa | 0 mm | - | 96 W/m² | - |
| 1777568953 | 9.44° C | 53% | 1016.5 hPa | 0 mm | - | 83 W/m² | - |
| 1777568652 | 9.44° C | 55% | 1016.6 hPa | 0 mm | - | 75 W/m² | - |
| 1777568354 | 9.44° C | 56% | 1016.8 hPa | 0 mm | - | 75 W/m² | - |
| 1777568053 | 8.89° C | 56% | 1016.8 hPa | 0 mm | - | 77 W/m² | - |
| 1777567753 | 8.89° C | 55% | 1016.7 hPa | 0 mm | - | 76 W/m² | - |
| 1777567453 | 8.89° C | 57% | 1016.7 hPa | 0 mm | - | 74 W/m² | - |
| 1777567153 | 8.89° C | 59% | 1016.7 hPa | 0 mm | - | 83 W/m² | - |
| 1777566854 | 8.33° C | 58% | 1016.8 hPa | 0 mm | - | 131 W/m² | - |
| 1777566552 | 8.89° C | 61% | 1016.8 hPa | 0 mm | - | 92 W/m² | - |
| 1777566254 | 8.33° C | 60% | 1016.8 hPa | 0 mm | - | 107 W/m² | - |
| 1777565953 | 8.33° C | 63% | 1016.8 hPa | 0 mm | - | 164 W/m² | - |
| 1777565654 | 8.33° C | 58% | 1016.8 hPa | 0 mm | - | 689 W/m² | - |
| 1777565353 | 8.33° C | 60% | 1016.8 hPa | 0 mm | - | 795 W/m² | - |
| 1777565053 | 8.33° C | 60% | 1016.7 hPa | 0 mm | - | 861 W/m² | - |
| 1777564756 | 8.33° C | 61% | 1016.8 hPa | 0 mm | - | 852 W/m² | - |
| 1777564453 | 8.33° C | 64% | 1016.8 hPa | 0 mm | - | 843 W/m² | - |
| 1777564153 | 8.33° C | 65% | 1016.8 hPa | 0 mm | - | 834 W/m² | - |
| 1777563853 | 8.33° C | 67% | 1016.8 hPa | 0 mm | - | 819 W/m² | - |
* Rain latest hour (hover to see other rain measurements)
** Current wind speed in m/s (hover to see current wind gust speed)